createdAt,value
2017-11-22T00:00:22.441Z,8.30
2017-11-22T00:02:50.873Z,8.30
2017-11-22T00:05:19.319Z,8.20
2017-11-22T00:07:48.222Z,8.20
2017-11-22T00:10:16.658Z,8.20
2017-11-22T00:12:45.119Z,8.30
2017-11-22T00:15:14.315Z,8.30
2017-11-22T00:17:43.516Z,8.40
2017-11-22T00:20:11.987Z,8.40
2017-11-22T00:22:41.188Z,8.20
2017-11-22T00:25:10.370Z,8.20
2017-11-22T00:27:38.834Z,8.20
2017-11-22T00:30:07.277Z,8.10
2017-11-22T00:32:35.714Z,8.10
2017-11-22T00:35:04.232Z,8.10
2017-11-22T00:37:33.558Z,8.10
2017-11-22T00:40:01.987Z,8.10
2017-11-22T00:42:31.218Z,8.20
2017-11-22T00:44:59.640Z,8.20
2017-11-22T00:47:28.065Z,8.20
2017-11-22T00:49:56.510Z,8.20
2017-11-22T00:52:25.667Z,8.00
2017-11-22T00:54:54.040Z,8.00
2017-11-22T00:57:22.424Z,8.00
2017-11-22T00:59:50.800Z,8.10
2017-11-22T01:02:19.167Z,8.00
2017-11-22T01:04:47.563Z,7.90
2017-11-22T01:07:15.941Z,7.90
2017-11-22T01:09:44.319Z,7.80
2017-11-22T01:12:12.784Z,7.80
2017-11-22T01:14:41.161Z,7.80
2017-11-22T01:17:09.539Z,7.90
2017-11-22T01:19:37.934Z,7.80
2017-11-22T01:22:06.302Z,7.70
2017-11-22T01:24:34.672Z,7.60
2017-11-22T01:27:03.089Z,7.60
2017-11-22T01:29:31.632Z,7.60
2017-11-22T01:32:00.012Z,7.50
2017-11-22T01:34:29.054Z,7.50
2017-11-22T01:36:57.870Z,7.40
2017-11-22T01:39:27.193Z,7.50
2017-11-22T01:41:55.573Z,7.50
2017-11-22T01:44:23.951Z,7.50
2017-11-22T01:46:51.666Z,7.60
2017-11-22T01:49:20.494Z,7.50
2017-11-22T01:51:48.878Z,7.50
2017-11-22T01:54:17.350Z,7.60
2017-11-22T01:56:45.735Z,7.60
2017-11-22T01:59:14.116Z,7.80
2017-11-22T02:01:42.496Z,7.80
2017-11-22T02:04:10.883Z,7.70
2017-11-22T02:06:39.259Z,7.70
2017-11-22T02:09:07.988Z,7.80
2017-11-22T02:11:37.136Z,7.80
2017-11-22T02:14:05.561Z,7.70
2017-11-22T02:16:34.690Z,7.80
2017-11-22T02:19:03.101Z,7.70
2017-11-22T02:21:31.147Z,7.80
2017-11-22T02:23:59.510Z,8.00
2017-11-22T02:26:28.678Z,8.00
2017-11-22T02:28:57.825Z,8.00
2017-11-22T02:31:25.545Z,8.00
2017-11-22T02:33:54.699Z,8.10
2017-11-22T02:36:23.084Z,8.10
2017-11-22T02:38:51.943Z,8.00
2017-11-22T02:41:19.992Z,8.00
2017-11-22T02:43:49.107Z,7.90
2017-11-22T02:46:17.482Z,7.90
2017-11-22T02:48:45.538Z,8.00
2017-11-22T02:51:13.903Z,7.80
2017-11-22T02:53:42.270Z,7.70
2017-11-22T02:56:10.758Z,7.60
2017-11-22T02:58:40.397Z,7.50
2017-11-22T03:01:08.872Z,7.50
2017-11-22T03:03:37.276Z,7.50
2017-11-22T03:06:05.656Z,7.30
2017-11-22T03:08:34.037Z,7.10
2017-11-22T03:11:02.424Z,7.10
2017-11-22T03:13:30.792Z,7.30
2017-11-22T03:15:59.158Z,7.30
2017-11-22T03:18:27.618Z,7.40
2017-11-22T03:20:56.094Z,7.30
2017-11-22T03:23:24.468Z,7.30
2017-11-22T03:25:52.858Z,7.20
2017-11-22T03:28:21.332Z,7.30
2017-11-22T03:30:49.705Z,7.30
2017-11-22T03:33:18.087Z,7.20
2017-11-22T03:35:45.802Z,7.00
2017-11-22T03:38:13.850Z,6.70
2017-11-22T03:40:42.232Z,6.70
2017-11-22T03:43:10.317Z,6.60
2017-11-22T03:45:38.693Z,6.60
2017-11-22T03:48:12.745Z,6.70
2017-11-22T03:50:46.609Z,6.60
2017-11-22T03:53:20.416Z,6.50
2017-11-22T03:55:48.454Z,6.40
2017-11-22T03:58:16.826Z,6.30
2017-11-22T04:00:45.308Z,6.30
2017-11-22T04:03:16.322Z,6.40
2017-11-22T04:05:50.183Z,6.30
2017-11-22T04:08:19.433Z,6.30
2017-11-22T04:10:47.812Z,6.20
2017-11-22T04:13:16.196Z,6.10
2017-11-22T04:15:44.579Z,6.00
2017-11-22T04:18:12.954Z,5.90
2017-11-22T04:23:35.171Z,5.90
2017-11-22T04:26:04.340Z,5.80
2017-11-22T04:28:32.382Z,5.80
2017-11-22T04:31:00.750Z,5.70
2017-11-22T04:33:29.137Z,5.70
2017-11-22T04:35:57.516Z,5.50
2017-11-22T04:38:25.899Z,5.40
2017-11-22T04:40:54.280Z,5.40
2017-11-22T04:43:22.016Z,5.40
2017-11-22T04:45:50.060Z,5.30
2017-11-22T04:48:19.252Z,5.00
2017-11-22T04:50:47.804Z,5.00
2017-11-22T04:53:17.687Z,4.80
2017-11-22T04:55:46.076Z,4.80
2017-11-22T04:58:14.460Z,4.70
2017-11-22T05:00:42.499Z,4.70
2017-11-22T05:03:11.742Z,4.60
2017-11-22T05:05:40.110Z,4.60
2017-11-22T05:08:08.682Z,4.60
2017-11-22T05:10:37.073Z,5.00
2017-11-22T05:13:05.456Z,5.20
2017-11-22T05:15:34.408Z,5.40
2017-11-22T05:18:02.791Z,5.50
2017-11-22T05:20:31.170Z,5.50
2017-11-22T05:22:59.546Z,5.60
2017-11-22T05:25:28.003Z,5.70
2017-11-22T05:27:56.382Z,5.70
2017-11-22T05:30:24.764Z,5.70
2017-11-22T05:32:53.140Z,5.70
2017-11-22T05:35:21.532Z,5.80
2017-11-22T05:37:49.963Z,5.70
2017-11-22T05:40:18.349Z,5.70
2017-11-22T05:42:47.519Z,5.70
2017-11-22T05:45:15.891Z,5.70
2017-11-22T05:47:44.282Z,5.70
2017-11-22T05:50:12.655Z,5.70
2017-11-22T05:52:41.036Z,5.70
2017-11-22T05:55:08.764Z,5.60
2017-11-22T05:57:37.146Z,5.60
2017-11-22T06:00:05.331Z,5.60
2017-11-22T06:02:34.274Z,5.60
2017-11-22T06:05:03.412Z,5.50
2017-11-22T06:07:31.782Z,5.50
2017-11-22T06:10:00.165Z,5.50
2017-11-22T06:12:28.542Z,5.60
2017-11-22T06:14:56.923Z,5.50
2017-11-22T06:17:25.301Z,5.60
2017-11-22T06:19:53.681Z,5.50
2017-11-22T06:22:22.048Z,5.60
2017-11-22T06:24:51.322Z,5.60
2017-11-22T06:27:19.704Z,5.60
2017-11-22T06:29:49.879Z,5.60
2017-11-22T06:32:18.997Z,5.70
2017-11-22T06:34:48.149Z,5.70
2017-11-22T06:37:16.512Z,5.70
2017-11-22T06:39:44.569Z,5.60
2017-11-22T06:42:12.947Z,5.60
2017-11-22T06:44:41.981Z,5.60
2017-11-22T06:47:10.365Z,5.50
2017-11-22T06:49:38.746Z,5.50
2017-11-22T06:52:07.116Z,5.40
2017-11-22T06:54:35.506Z,5.40
2017-11-22T06:57:03.886Z,5.40
2017-11-22T06:59:33.026Z,5.50
2017-11-22T07:02:01.526Z,5.50
2017-11-22T07:04:29.902Z,5.60
2017-11-22T07:06:58.295Z,5.60
2017-11-22T07:09:26.682Z,5.60
2017-11-22T07:11:55.046Z,5.70
2017-11-22T07:14:23.597Z,5.80
2017-11-22T07:16:57.555Z,5.80
2017-11-22T07:19:25.982Z,5.80
2017-11-22T07:21:54.512Z,5.90
2017-11-22T07:24:23.056Z,5.90
2017-11-22T07:26:51.674Z,5.90
2017-11-22T07:29:20.042Z,6.00
2017-11-22T07:31:48.610Z,6.00
2017-11-22T07:34:17.565Z,6.20
2017-11-22T07:36:45.931Z,6.30
2017-11-22T07:39:15.083Z,6.80
2017-11-22T07:41:43.656Z,6.70
2017-11-22T07:44:12.051Z,7.50
2017-11-22T07:46:40.748Z,8.50
2017-11-22T07:49:11.947Z,9.60
2017-11-22T07:51:45.787Z,10.30
2017-11-22T07:54:14.205Z,10.80
2017-11-22T07:56:42.592Z,11.20
2017-11-22T07:59:11.006Z,11.00
2017-11-22T08:01:39.378Z,10.70
2017-11-22T08:04:13.343Z,10.40
2017-11-22T08:06:42.160Z,10.40
2017-11-22T08:09:11.268Z,10.40
2017-11-22T08:11:39.331Z,10.40
2017-11-22T08:14:07.706Z,10.50
2017-11-22T08:16:36.912Z,10.50
2017-11-22T08:19:05.318Z,10.40
2017-11-22T08:21:34.554Z,10.30
2017-11-22T08:24:02.953Z,10.20
2017-11-22T08:26:30.689Z,10.20
2017-11-22T08:28:59.830Z,10.10
2017-11-22T08:31:28.426Z,10.10
2017-11-22T08:33:56.815Z,10.20
2017-11-22T08:36:25.957Z,10.50
2017-11-22T08:38:54.340Z,10.50
2017-11-22T08:41:25.670Z,10.80
2017-11-22T08:43:55.868Z,11.40
2017-11-22T08:46:25.643Z,12.20
2017-11-22T08:48:54.026Z,12.20
2017-11-22T08:51:22.413Z,12.60
2017-11-22T08:53:50.860Z,13.10
2017-11-22T08:56:21.180Z,13.70
2017-11-22T08:58:49.583Z,13.80
2017-11-22T09:01:17.975Z,13.80
2017-11-22T09:03:46.376Z,14.00
2017-11-22T09:06:21.131Z,14.40
2017-11-22T09:08:50.057Z,14.40
2017-11-22T09:11:18.441Z,14.50
2017-11-22T09:13:46.828Z,14.30
2017-11-22T09:16:15.220Z,14.50
2017-11-22T09:18:44.359Z,15.30
2017-11-22T09:21:12.742Z,15.30
2017-11-22T09:23:41.127Z,15.80
2017-11-22T09:26:09.502Z,16.10
2017-11-22T09:28:37.878Z,15.60
2017-11-22T09:31:11.715Z,15.60
2017-11-22T09:33:40.094Z,16.30
2017-11-22T09:36:08.471Z,16.90
2017-11-22T09:38:37.103Z,17.10
2017-11-22T09:41:05.494Z,17.60
2017-11-22T09:43:33.871Z,17.80
2017-11-22T09:46:02.258Z,18.20
2017-11-22T09:48:30.635Z,18.50
2017-11-22T09:50:59.036Z,18.80
2017-11-22T09:53:27.435Z,18.70
2017-11-22T09:55:55.806Z,18.10
2017-11-22T09:58:24.961Z,17.30
2017-11-22T10:00:53.342Z,17.30
2017-11-22T10:03:21.723Z,17.60
2017-11-22T10:05:50.228Z,17.50
2017-11-22T10:08:18.616Z,17.90
2017-11-22T10:10:46.993Z,18.40
2017-11-22T10:13:15.363Z,18.60
2017-11-22T10:15:43.749Z,18.70
2017-11-22T10:18:11.934Z,19.10
2017-11-22T10:20:46.667Z,18.40
2017-11-22T10:23:21.239Z,18.90
2017-11-22T10:25:49.446Z,18.80
2017-11-22T10:28:17.635Z,19.10
2017-11-22T10:30:46.600Z,17.80
2017-11-22T10:33:15.056Z,17.70
2017-11-22T10:35:43.102Z,16.80
2017-11-22T10:38:11.480Z,16.20
2017-11-22T10:40:39.911Z,15.80
2017-11-22T10:43:08.292Z,15.40
2017-11-22T10:45:36.679Z,15.20
2017-11-22T10:48:05.835Z,15.00
2017-11-22T10:50:34.220Z,14.90
2017-11-22T10:53:02.607Z,14.80
2017-11-22T10:55:30.679Z,14.80
2017-11-22T10:57:58.730Z,14.70
2017-11-22T11:00:26.604Z,14.70
2017-11-22T11:02:55.013Z,14.70
2017-11-22T11:05:24.175Z,14.80
2017-11-22T11:07:52.561Z,14.70
2017-11-22T11:10:20.966Z,14.70
2017-11-22T11:12:49.350Z,14.70
2017-11-22T11:15:18.506Z,14.70
2017-11-22T11:17:46.943Z,14.70
2017-11-22T11:20:15.328Z,14.70
2017-11-22T11:22:43.714Z,14.70
2017-11-22T11:25:12.095Z,14.70
2017-11-22T11:27:40.477Z,14.70
2017-11-22T11:30:08.857Z,14.70
2017-11-22T11:32:37.260Z,14.60
2017-11-22T11:35:05.648Z,14.60
2017-11-22T11:37:33.719Z,14.70
2017-11-22T11:40:01.779Z,14.80
2017-11-22T11:42:29.511Z,14.80
2017-11-22T11:44:57.567Z,14.70
2017-11-22T11:47:25.622Z,14.80
2017-11-22T11:49:54.766Z,14.90
2017-11-22T11:52:23.158Z,14.90
2017-11-22T11:54:51.909Z,14.90
2017-11-22T11:57:19.964Z,14.80
2017-11-22T11:59:48.988Z,14.80
2017-11-22T12:02:18.944Z,14.90
2017-11-22T12:04:47.404Z,14.90
2017-11-22T12:07:15.802Z,14.90
2017-11-22T12:09:44.962Z,14.90
2017-11-22T12:12:13.165Z,14.90
2017-11-22T12:14:41.564Z,15.00
2017-11-22T12:17:10.729Z,14.90
2017-11-22T12:19:39.123Z,14.90
2017-11-22T12:22:13.384Z,14.80
2017-11-22T12:24:41.779Z,14.80
2017-11-22T12:27:10.175Z,14.80
2017-11-22T12:29:38.579Z,14.70
2017-11-22T12:32:07.724Z,14.60
2017-11-22T12:34:36.103Z,14.60
2017-11-22T12:37:04.510Z,14.60
2017-11-22T12:39:32.896Z,14.70
2017-11-22T12:42:01.268Z,14.60
2017-11-22T12:44:29.659Z,14.60
2017-11-22T12:46:59.635Z,14.50
2017-11-22T12:49:28.033Z,14.50
2017-11-22T12:51:56.428Z,14.60
2017-11-22T12:54:25.063Z,14.70
2017-11-22T12:56:53.487Z,14.70
2017-11-22T12:59:21.871Z,14.80
2017-11-22T13:01:51.040Z,15.00
2017-11-22T13:04:19.435Z,15.00
2017-11-22T13:06:47.500Z,15.10
2017-11-22T13:09:15.881Z,15.10
2017-11-22T13:11:51.051Z,15.10
2017-11-22T13:14:19.446Z,15.00
2017-11-22T13:16:49.396Z,15.10
2017-11-22T13:19:18.972Z,15.00
2017-11-22T13:21:46.732Z,15.00
2017-11-22T13:24:15.108Z,14.90
2017-11-22T13:26:43.991Z,14.80
2017-11-22T13:29:12.366Z,14.80
2017-11-22T13:31:40.753Z,14.90
2017-11-22T13:34:09.149Z,14.80
2017-11-22T13:36:37.063Z,14.90
2017-11-22T13:39:06.420Z,14.70
2017-11-22T13:41:36.935Z,14.70
2017-11-22T13:44:04.660Z,14.70
2017-11-22T13:46:33.167Z,14.60
2017-11-22T13:49:01.223Z,14.60
2017-11-22T13:51:29.267Z,14.50
2017-11-22T13:53:57.682Z,14.60
2017-11-22T13:56:25.753Z,14.60
2017-11-22T13:58:54.129Z,14.70
2017-11-22T14:01:25.037Z,14.60
2017-11-22T14:03:53.328Z,14.60
2017-11-22T14:06:21.711Z,14.60
2017-11-22T14:08:49.440Z,14.50
2017-11-22T14:11:17.672Z,14.50
2017-11-22T14:13:45.719Z,14.50
2017-11-22T14:16:14.563Z,14.50
2017-11-22T14:18:42.835Z,14.30
2017-11-22T14:21:10.562Z,14.20
2017-11-22T14:23:38.275Z,14.10
2017-11-22T14:26:05.994Z,14.10
2017-11-22T14:28:34.041Z,14.20
2017-11-22T14:31:02.082Z,14.10
2017-11-22T14:33:30.923Z,13.90
2017-11-22T14:35:59.159Z,13.80
2017-11-22T14:38:27.938Z,13.50
2017-11-22T14:40:56.430Z,13.30
2017-11-22T14:43:25.245Z,13.10
2017-11-22T14:45:52.957Z,13.00
2017-11-22T14:48:20.689Z,13.00
2017-11-22T14:50:48.408Z,13.00
2017-11-22T14:53:17.603Z,13.00
2017-11-22T14:55:45.935Z,13.00
2017-11-22T14:58:13.651Z,12.90
2017-11-22T15:00:41.373Z,12.60
2017-11-22T15:03:09.103Z,12.50
2017-11-22T15:05:36.828Z,12.40
2017-11-22T15:08:04.548Z,12.30
2017-11-22T15:10:32.872Z,12.10
2017-11-22T15:13:00.600Z,11.90
2017-11-22T15:15:28.329Z,11.80
2017-11-22T15:17:56.504Z,11.80
2017-11-22T15:20:24.220Z,11.80
2017-11-22T15:22:52.704Z,11.40
2017-11-22T15:25:22.246Z,11.30
2017-11-22T15:27:49.972Z,11.20
2017-11-22T15:30:18.455Z,11.00
2017-11-22T15:32:46.186Z,11.00
2017-11-22T15:35:13.903Z,10.80
2017-11-22T15:37:41.619Z,10.70
2017-11-22T15:40:10.771Z,10.40
2017-11-22T15:42:38.482Z,10.40
2017-11-22T15:45:07.626Z,10.20
2017-11-22T15:47:36.023Z,10.20
2017-11-22T15:50:04.412Z,10.10
2017-11-22T15:52:32.448Z,10.00
2017-11-22T15:55:00.843Z,9.90
2017-11-22T15:57:29.377Z,9.70
2017-11-22T15:59:57.878Z,9.60
2017-11-22T16:02:25.927Z,9.50
2017-11-22T16:04:53.968Z,9.40
2017-11-22T16:07:22.347Z,9.30
2017-11-22T16:09:50.733Z,9.20
2017-11-22T16:12:19.883Z,9.00
2017-11-22T16:14:48.267Z,9.00
2017-11-22T16:17:17.069Z,9.00
2017-11-22T16:19:47.178Z,8.90
2017-11-22T16:22:15.229Z,8.90
2017-11-22T16:24:43.620Z,8.80
2017-11-22T16:27:12.003Z,8.70
2017-11-22T16:29:40.383Z,8.60
2017-11-22T16:32:08.767Z,8.50
2017-11-22T16:34:37.151Z,8.40
2017-11-22T16:37:05.972Z,8.40
2017-11-22T16:39:35.134Z,8.20
2017-11-22T16:42:03.513Z,8.20
2017-11-22T16:44:32.100Z,8.30
2017-11-22T16:47:00.469Z,8.20
2017-11-22T16:49:28.522Z,8.20
2017-11-22T16:51:56.720Z,8.20
2017-11-22T16:54:25.339Z,8.10
2017-11-22T16:56:54.484Z,8.00
2017-11-22T16:59:22.864Z,7.90
2017-11-22T17:01:51.304Z,8.00
2017-11-22T17:04:19.688Z,7.90
2017-11-22T17:06:47.412Z,7.80
2017-11-22T17:09:16.808Z,7.80
2017-11-22T17:11:44.855Z,7.80
2017-11-22T17:14:12.911Z,7.70
2017-11-22T17:16:41.294Z,7.70
2017-11-22T17:19:09.677Z,7.60
2017-11-22T17:21:38.105Z,7.60
2017-11-22T17:24:07.260Z,7.50
2017-11-22T17:26:35.638Z,7.50
2017-11-22T17:29:04.022Z,7.40
2017-11-22T17:31:32.469Z,7.50
2017-11-22T17:34:00.841Z,7.50
2017-11-22T17:36:28.881Z,7.50
2017-11-22T17:38:58.022Z,7.40
2017-11-22T17:41:26.491Z,7.40
2017-11-22T17:43:54.887Z,7.40
2017-11-22T17:46:23.279Z,7.30
2017-11-22T17:48:51.659Z,7.30
2017-11-22T17:51:20.027Z,7.20
2017-11-22T17:53:48.421Z,7.20
2017-11-22T17:56:16.808Z,7.10
2017-11-22T17:58:45.375Z,7.00
2017-11-22T18:01:13.099Z,6.90
2017-11-22T18:03:41.482Z,6.90
2017-11-22T18:06:09.851Z,6.80
2017-11-22T18:08:38.235Z,6.70
2017-11-22T18:11:06.278Z,6.70
2017-11-22T18:13:34.339Z,6.70
2017-11-22T18:16:02.411Z,6.70
2017-11-22T18:18:31.556Z,6.90
2017-11-22T18:20:59.292Z,6.90
2017-11-22T18:23:27.044Z,6.80
2017-11-22T18:25:55.436Z,6.70
2017-11-22T18:28:23.819Z,6.60
2017-11-22T18:30:52.215Z,6.60
2017-11-22T18:33:21.381Z,6.50
2017-11-22T18:35:49.751Z,6.40
2017-11-22T18:38:18.144Z,6.40
2017-11-22T18:40:46.519Z,6.40
2017-11-22T18:43:14.562Z,6.40
2017-11-22T18:45:43.386Z,6.60
2017-11-22T18:48:11.769Z,6.60
2017-11-22T18:50:40.153Z,6.80
2017-11-22T18:53:08.548Z,6.70
2017-11-22T18:55:36.918Z,6.60
2017-11-22T18:58:04.970Z,6.50
2017-11-22T19:00:32.696Z,6.50
2017-11-22T19:03:01.846Z,6.90
2017-11-22T19:05:29.900Z,6.80
2017-11-22T19:07:57.655Z,6.90
2017-11-22T19:10:26.215Z,6.90
2017-11-22T19:12:54.591Z,6.80
2017-11-22T19:15:22.970Z,6.60
2017-11-22T19:17:51.415Z,6.50
2017-11-22T19:20:19.800Z,6.40
2017-11-22T19:22:48.955Z,6.10
2017-11-22T19:25:17.417Z,6.00
2017-11-22T19:27:45.799Z,6.00
2017-11-22T19:30:14.182Z,6.00
2017-11-22T19:32:42.596Z,5.90
2017-11-22T19:35:10.980Z,6.00
2017-11-22T19:37:39.909Z,5.90
2017-11-22T19:40:08.453Z,5.80
2017-11-22T19:42:36.880Z,5.70
2017-11-22T19:45:05.780Z,5.70
2017-11-22T19:47:34.170Z,5.60
2017-11-22T19:50:02.534Z,5.60
2017-11-22T19:55:05.715Z,5.70
2017-11-22T19:57:34.113Z,5.80
2017-11-22T20:00:02.505Z,5.80
2017-11-22T20:02:30.875Z,5.70
2017-11-22T20:04:59.269Z,5.60
2017-11-22T20:07:38.864Z,5.50
2017-11-22T20:10:07.252Z,5.50
2017-11-22T20:12:35.640Z,5.50
2017-11-22T20:15:04.119Z,5.50
2017-11-22T20:17:31.848Z,5.50
2017-11-22T20:20:00.991Z,5.30
2017-11-22T20:22:29.370Z,5.40
2017-11-22T20:24:57.751Z,5.40
2017-11-22T20:27:26.132Z,5.60
2017-11-22T20:29:54.506Z,5.60
2017-11-22T20:32:22.895Z,5.60
2017-11-22T20:34:51.266Z,5.50
2017-11-22T20:37:19.655Z,5.40
2017-11-22T20:39:48.058Z,5.30
2017-11-22T20:42:16.616Z,5.30
2017-11-22T20:44:45.008Z,5.40
2017-11-22T20:47:14.165Z,5.50
2017-11-22T20:49:42.538Z,5.40
2017-11-22T20:52:11.032Z,5.40
2017-11-22T20:54:39.487Z,5.30
2017-11-22T20:57:07.872Z,5.10
2017-11-22T20:59:36.380Z,5.10
2017-11-22T21:02:04.771Z,4.90
2017-11-22T21:04:33.149Z,4.90
2017-11-22T21:07:01.524Z,5.00
2017-11-22T21:09:29.907Z,5.00
2017-11-22T21:11:58.360Z,5.00
2017-11-22T21:14:26.807Z,5.00
2017-11-22T21:16:55.215Z,4.90
2017-11-22T21:19:23.598Z,4.80
2017-11-22T21:21:51.990Z,4.70
2017-11-22T21:24:20.375Z,4.60
2017-11-22T21:26:48.746Z,4.50
2017-11-22T21:29:21.285Z,4.50
2017-11-22T21:31:51.599Z,4.40
2017-11-22T21:34:20.001Z,4.30
2017-11-22T21:36:48.397Z,4.20
2017-11-22T21:39:16.810Z,4.10
2017-11-22T21:41:45.965Z,4.00
2017-11-22T21:44:14.376Z,4.00
2017-11-22T21:46:43.527Z,3.90
2017-11-22T21:49:11.596Z,3.90
2017-11-22T21:51:39.977Z,3.80
2017-11-22T21:54:08.360Z,3.80
2017-11-22T21:56:36.775Z,3.70
2017-11-22T21:59:05.609Z,3.60
2017-11-22T22:01:33.996Z,3.60
2017-11-22T22:04:02.387Z,3.60
2017-11-22T22:06:30.779Z,3.50
2017-11-22T22:08:59.164Z,3.60
2017-11-22T22:11:28.310Z,3.50
2017-11-22T22:13:56.718Z,3.50
2017-11-22T22:16:25.096Z,3.50
2017-11-22T22:18:53.472Z,3.50
2017-11-22T22:21:21.863Z,3.50
2017-11-22T22:23:51.019Z,3.50
2017-11-22T22:26:19.395Z,3.50
2017-11-22T22:28:47.775Z,3.40
2017-11-22T22:31:16.250Z,3.40
2017-11-22T22:33:44.630Z,3.40
2017-11-22T22:36:13.851Z,3.50
2017-11-22T22:38:42.221Z,3.80
2017-11-22T22:41:10.622Z,4.00
2017-11-22T22:43:39.184Z,4.10
2017-11-22T22:46:07.579Z,4.10
2017-11-22T22:48:35.954Z,4.10
2017-11-22T22:51:04.332Z,4.10
2017-11-22T22:53:32.714Z,4.20
2017-11-22T22:56:01.090Z,4.20
2017-11-22T22:58:29.476Z,4.20
2017-11-22T23:00:57.856Z,4.10
2017-11-22T23:03:26.240Z,4.10
2017-11-22T23:05:55.403Z,4.20
2017-11-22T23:08:23.775Z,4.20
2017-11-22T23:10:52.156Z,4.20
2017-11-22T23:13:21.342Z,4.30
2017-11-22T23:15:49.716Z,4.30
2017-11-22T23:18:17.938Z,4.30
2017-11-22T23:20:47.750Z,4.20
2017-11-22T23:23:16.892Z,4.20
2017-11-22T23:25:45.273Z,4.10
2017-11-22T23:28:13.655Z,4.00
2017-11-22T23:30:42.032Z,3.90
2017-11-22T23:33:11.230Z,3.90
2017-11-22T23:35:39.623Z,3.80
2017-11-22T23:38:07.995Z,3.80
2017-11-22T23:40:36.375Z,3.90
2017-11-22T23:43:04.771Z,3.90
2017-11-22T23:45:33.180Z,3.90
2017-11-22T23:48:01.718Z,4.00
2017-11-22T23:50:30.112Z,4.00
2017-11-22T23:53:00.366Z,4.00
2017-11-22T23:55:28.760Z,3.90
2017-11-22T23:57:57.142Z,3.90
